hwlogo.jpg (8581 bytes)
Home Your Weather Products Services Weather On Your Site Contact
HW Version Logo
Weather Info
Your Weather (Options)
Canadian Weather
International Weather
Enter your " Place, State", US Zip Code or ICAO:  
Forecast Information Radar Information
Timmins, Ontario, Canada  Lat: 48.55N, Lon: 81.37W
ICAO Used: CYTS
Current Conditions
Updated: 1:00 PM EST THU FEB 22 2018
Sun & Moon Information
Mostly Cloudy
Mostly Cloudy
Temp: -3°C
Humidity: 49%
Wind Speed: VRB2 MPH
Barometer: 1036 mb
Dewpoint: -12°C
Heat Index: -3°C
Wind Chill: -4°C
Civil Twilight: 6:51 AM EST Moon Phase:
Waxing Gibbous Moon
Sunrise: 7:23 AM EST
Sunset: 5:54 PM EST
Civil Twilight: 6:26 PM EST
Forecast for Timmins, ON:
(Forecast based on TAF for )
0330 PM EST THU FEB 22 2018
  
AFTERNOON EVENING OVERNIGHT
Partly
Cloudy
Partly
Cloudy
Partly
Cloudy
ZoneCast:
Dated: 0330 PM EST THU FEB 22 2018
Afternoon...Partly cloudy with winds from the southsouthwest at 7 mph.

Evening...Partly cloudy with winds from the southsouthwest at 7 mph.

Overnight...Partly cloudy with winds from the southsouthwest at 7 mph.

Original Encoded TAF:
Dated: 0330 PM EST THU FEB 22 2018
2018/02/22 20:30
TAF CYTS 211938Z 2120/2208 24006KT P6SM FEW020 
      RMK NXT FCST BY 220200Z